Time;durP1;ratioP1;P1;durP2;ratioP2;P2;SDS_P1;SDS_P2;PMS_P1;PMS_P2;Temp;Humidity;BMP_temperature;BMP_pressure;BME280_temperature;BME280_humidity;BME280_pressure;Samples;Min_cycle;Max_cycle;Signal;HPM_P1;HPM_P2
2023/06/28 00:01:10;;;;;;;1.50;1.23;;;24.80;72.70;;;;;;5019590;28;20462;-81
2023/06/28 00:03:39;;;;;;;1.20;0.93;;;24.80;72.80;;;;;;5018230;28;20811;-82
2023/06/28 00:06:08;;;;;;;2.37;1.50;;;24.80;72.80;;;;;;5022057;28;20458;-82
2023/06/28 00:08:34;;;;;;;1.83;1.00;;;24.80;72.80;;;;;;5018282;28;21145;-82
2023/06/28 00:11:01;;;;;;;1.33;0.90;;;24.80;72.80;;;;;;5017590;28;20454;-82
2023/06/28 00:13:28;;;;;;;1.30;0.87;;;24.80;72.80;;;;;;5022609;28;20520;-82
2023/06/28 00:15:55;;;;;;;2.27;1.37;;;24.80;72.80;;;;;;5021768;28;20489;-83
2023/06/28 00:18:22;;;;;;;1.37;1.10;;;24.80;73.00;;;;;;5019306;28;20480;-82
2023/06/28 00:20:49;;;;;;;2.13;1.00;;;24.80;72.90;;;;;;5019575;28;21043;-81
2023/06/28 00:23:17;;;;;;;1.40;0.80;;;24.80;72.90;;;;;;5019020;28;20466;-82
2023/06/28 00:25:43;;;;;;;1.47;1.30;;;24.80;73.00;;;;;;5016852;28;20831;-82
2023/06/28 00:28:10;;;;;;;2.70;1.27;;;24.80;73.00;;;;;;5018664;28;20605;-81
2023/06/28 00:30:37;;;;;;;1.60;1.00;;;24.80;73.00;;;;;;5016642;28;20458;-80
2023/06/28 00:33:04;;;;;;;1.33;1.10;;;24.80;73.00;;;;;;5014974;28;20459;-81
2023/06/28 00:35:31;;;;;;;1.40;1.10;;;24.80;73.00;;;;;;5020069;28;20481;-81
2023/06/28 00:37:57;;;;;;;1.60;1.10;;;24.80;73.00;;;;;;5020968;28;20461;-80
2023/06/28 00:40:25;;;;;;;1.20;1.10;;;24.80;73.10;;;;;;5013762;28;20474;-80
2023/06/28 00:42:52;;;;;;;1.47;0.90;;;24.80;73.10;;;;;;5019089;28;20462;-81
2023/06/28 00:45:19;;;;;;;1.30;0.90;;;24.80;73.10;;;;;;5017467;28;20969;-81
2023/06/28 00:47:47;;;;;;;1.20;0.90;;;24.80;73.10;;;;;;5015773;28;20473;-81
2023/06/28 00:50:15;;;;;;;1.33;0.90;;;24.70;73.00;;;;;;5025159;28;20467;-81
2023/06/28 00:52:42;;;;;;;2.13;1.47;;;24.80;73.20;;;;;;5025838;28;20474;-80
2023/06/28 00:55:10;;;;;;;1.70;1.10;;;24.80;73.20;;;;;;5024983;28;20490;-80
2023/06/28 00:57:38;;;;;;;1.00;0.90;;;24.80;73.20;;;;;;5024053;28;20621;-81
2023/06/28 01:00:09;;;;;;;2.50;1.10;;;24.70;73.10;;;;;;5024591;28;20458;-80
2023/06/28 01:02:36;;;;;;;1.53;1.23;;;24.70;73.20;;;;;;5025772;28;21045;-81
2023/06/28 01:05:03;;;;;;;1.40;1.00;;;24.70;73.10;;;;;;5023730;28;20458;-81
2023/06/28 01:07:35;;;;;;;1.30;1.10;;;24.70;73.20;;;;;;5024142;28;20455;-81
2023/06/28 01:10:02;;;;;;;1.20;0.97;;;24.70;73.20;;;;;;5026133;28;20447;-81
2023/06/28 01:12:30;;;;;;;1.73;0.90;;;24.70;73.20;;;;;;5025802;28;20868;-80
2023/06/28 01:14:58;;;;;;;1.87;1.20;;;24.70;73.20;;;;;;5023410;28;20492;-80
2023/06/28 01:17:25;;;;;;;1.10;0.80;;;24.70;73.30;;;;;;5022137;28;20470;-79
2023/06/28 01:19:54;;;;;;;1.10;0.90;;;24.70;73.30;;;;;;5017929;28;20462;-80
2023/06/28 01:22:21;;;;;;;1.10;0.97;;;24.70;73.30;;;;;;5016838;28;20462;-80
2023/06/28 01:24:49;;;;;;;2.07;1.10;;;24.70;73.40;;;;;;5015803;28;20549;-80
2023/06/28 01:27:16;;;;;;;1.50;1.30;;;24.70;73.40;;;;;;5015248;28;20825;-80
2023/06/28 01:29:47;;;;;;;1.60;1.50;;;24.70;73.40;;;;;;5018976;28;20461;-80
2023/06/28 01:32:14;;;;;;;2.20;1.40;;;24.70;73.40;;;;;;5017810;28;20466;-79
2023/06/28 01:34:40;;;;;;;1.97;1.37;;;24.70;73.50;;;;;;5020143;28;20489;-80
2023/06/28 01:37:07;;;;;;;1.17;1.00;;;24.70;73.40;;;;;;5019489;28;21421;-80
2023/06/28 01:39:35;;;;;;;1.20;1.07;;;24.70;73.50;;;;;;5020014;28;20470;-80
2023/06/28 01:42:04;;;;;;;1.30;0.97;;;24.70;73.50;;;;;;5021846;28;20477;-81
2023/06/28 01:44:32;;;;;;;1.20;1.10;;;24.70;73.50;;;;;;5023533;28;20458;-81
2023/06/28 01:46:59;;;;;;;1.70;1.20;;;24.70;73.50;;;;;;5016466;28;20454;-81
2023/06/28 01:49:26;;;;;;;1.20;1.10;;;24.70;73.60;;;;;;5019725;28;20462;-81
2023/06/28 01:51:54;;;;;;;1.20;1.07;;;24.70;73.60;;;;;;5026176;28;21115;-80
2023/06/28 01:54:21;;;;;;;1.60;1.50;;;24.60;73.50;;;;;;5032637;28;20477;-80
2023/06/28 01:56:50;;;;;;;1.27;1.03;;;24.70;73.60;;;;;;5023065;28;20474;-80
2023/06/28 01:59:18;;;;;;;1.30;1.00;;;24.70;73.60;;;;;;5022210;28;20486;-81
2023/06/28 02:01:45;;;;;;;1.20;0.97;;;24.70;73.70;;;;;;5024059;28;20466;-80
2023/06/28 02:04:12;;;;;;;1.67;1.40;;;24.70;73.70;;;;;;5025136;28;20466;-80
2023/06/28 02:06:41;;;;;;;1.40;1.00;;;24.70;73.60;;;;;;5016833;28;20560;-80
2023/06/28 02:09:07;;;;;;;1.47;0.90;;;24.60;73.60;;;;;;5016201;28;20464;-81
2023/06/28 02:11:34;;;;;;;2.23;1.23;;;24.60;73.60;;;;;;5017324;28;20466;-80
2023/06/28 02:14:01;;;;;;;2.00;1.20;;;24.60;73.60;;;;;;5019251;28;20466;-80
2023/06/28 02:16:30;;;;;;;1.40;1.23;;;24.60;73.60;;;;;;5025631;28;20487;-80
2023/06/28 02:18:58;;;;;;;1.53;1.20;;;24.60;73.60;;;;;;5027054;28;20473;-81
2023/06/28 02:21:24;;;;;;;1.40;0.90;;;24.60;73.60;;;;;;5026623;28;20477;-81
2023/06/28 02:23:51;;;;;;;1.13;1.03;;;24.60;73.70;;;;;;5028266;28;20965;-82
2023/06/28 02:26:19;;;;;;;1.23;1.13;;;24.60;73.70;;;;;;5027104;28;20445;-80
2023/06/28 02:28:46;;;;;;;1.10;1.00;;;24.60;73.70;;;;;;5027471;28;20545;-80
2023/06/28 02:31:12;;;;;;;2.17;1.30;;;24.60;73.70;;;;;;5029156;28;20469;-80
2023/06/28 02:33:40;;;;;;;2.30;1.30;;;24.60;73.70;;;;;;5030929;28;20461;-79
2023/06/28 02:36:07;;;;;;;1.37;1.00;;;24.60;73.70;;;;;;5028916;28;20479;-80
2023/06/28 02:38:34;;;;;;;2.90;1.80;;;24.60;73.80;;;;;;5028050;28;20447;-80
2023/06/28 02:41:01;;;;;;;1.40;1.00;;;24.60;73.70;;;;;;5028292;28;20458;-79
2023/06/28 02:43:28;;;;;;;1.87;1.00;;;24.60;73.90;;;;;;5028306;28;20476;-79
2023/06/28 02:45:55;;;;;;;1.20;0.87;;;24.60;73.90;;;;;;5029993;28;20976;-79
2023/06/28 02:48:22;;;;;;;1.20;1.00;;;24.60;73.90;;;;;;5028683;28;20537;-80
2023/06/28 02:50:50;;;;;;;1.90;1.80;;;24.60;73.90;;;;;;5019070;28;20459;-79
2023/06/28 02:53:17;;;;;;;1.60;1.00;;;24.60;73.90;;;;;;5016372;28;20458;-80
2023/06/28 02:55:43;;;;;;;1.53;1.20;;;24.60;73.90;;;;;;5022111;28;20487;-79
2023/06/28 02:58:10;;;;;;;1.73;1.00;;;24.60;73.90;;;;;;5017998;28;20482;-75
2023/06/28 03:00:38;;;;;;;1.37;1.10;;;24.60;73.90;;;;;;5021619;28;20812;-76
2023/06/28 03:03:09;;;;;;;1.10;1.00;;;24.60;73.90;;;;;;5021586;28;20455;-75
2023/06/28 03:05:37;;;;;;;1.23;1.10;;;24.60;74.00;;;;;;5023495;28;20498;-80
2023/06/28 03:08:05;;;;;;;1.80;1.10;;;24.60;74.00;;;;;;5018229;28;20498;-80
2023/06/28 03:10:32;;;;;;;1.33;1.17;;;24.60;74.00;;;;;;5019197;28;20482;-80
2023/06/28 03:12:59;;;;;;;1.27;1.10;;;24.60;74.00;;;;;;5021432;28;20910;-79
2023/06/28 03:15:26;;;;;;;1.20;0.90;;;24.60;74.00;;;;;;5024863;28;20513;-79
2023/06/28 03:17:53;;;;;;;1.27;1.17;;;24.60;74.10;;;;;;5028082;28;20489;-79
2023/06/28 03:20:20;;;;;;;1.00;0.80;;;24.60;74.10;;;;;;5026764;28;20468;-80
2023/06/28 03:22:47;;;;;;;1.53;1.30;;;24.60;74.10;;;;;;5022120;28;21475;-80
2023/06/28 03:25:15;;;;;;;1.20;1.10;;;24.60;74.10;;;;;;5022591;28;20465;-80
2023/06/28 03:27:42;;;;;;;1.60;1.00;;;24.60;74.10;;;;;;5025030;28;20550;-81
2023/06/28 03:30:10;;;;;;;1.93;1.37;;;24.50;74.00;;;;;;5021323;28;20991;-79
2023/06/28 03:32:36;;;;;;;1.77;1.30;;;24.60;74.20;;;;;;5021218;28;20709;-79
2023/06/28 03:35:04;;;;;;;1.30;1.20;;;24.60;74.20;;;;;;5016319;28;20458;-79
2023/06/28 03:37:31;;;;;;;1.50;1.30;;;24.60;74.20;;;;;;5022531;28;20457;-79
2023/06/28 03:39:57;;;;;;;1.20;0.97;;;24.60;74.20;;;;;;5027314;28;21029;-79
2023/06/28 03:42:26;;;;;;;1.10;0.93;;;24.60;74.20;;;;;;5028505;28;20459;-79
2023/06/28 03:44:52;;;;;;;1.50;1.17;;;24.60;74.20;;;;;;5022624;28;20788;-79
2023/06/28 03:47:19;;;;;;;1.03;0.90;;;24.50;74.20;;;;;;5019988;28;20991;-79
2023/06/28 03:49:46;;;;;;;1.57;1.00;;;24.50;74.10;;;;;;5025783;28;20825;-79
2023/06/28 03:52:13;;;;;;;1.47;1.27;;;24.50;74.10;;;;;;5024080;28;20470;-79
2023/06/28 03:54:40;;;;;;;1.60;1.40;;;24.50;74.10;;;;;;5027644;28;20465;-79
2023/06/28 03:57:07;;;;;;;1.67;1.23;;;24.50;74.20;;;;;;5022489;28;21717;-79
2023/06/28 03:59:35;;;;;;;1.20;1.00;;;24.50;74.20;;;;;;5031002;28;20481;-79
2023/06/28 04:02:02;;;;;;;1.13;1.03;;;24.50;74.20;;;;;;5018128;28;20473;-80
2023/06/28 04:04:29;;;;;;;1.30;1.20;;;24.50;74.20;;;;;;5019907;28;20830;-80
2023/06/28 04:06:56;;;;;;;1.33;1.20;;;24.50;74.20;;;;;;5023248;28;20553;-80
2023/06/28 04:09:23;;;;;;;1.40;1.10;;;24.60;74.40;;;;;;5023582;28;20472;-80
2023/06/28 04:11:49;;;;;;;1.17;1.07;;;24.50;74.30;;;;;;5017926;28;20573;-80
2023/06/28 04:14:16;;;;;;;1.30;1.00;;;24.50;74.30;;;;;;5023525;28;20947;-79
2023/06/28 04:16:44;;;;;;;1.40;1.00;;;24.50;74.30;;;;;;5025317;28;21477;-80
2023/06/28 04:19:11;;;;;;;1.30;1.00;;;24.50;74.30;;;;;;5017770;28;20463;-81
2023/06/28 04:21:38;;;;;;;1.40;1.30;;;24.50;74.30;;;;;;5021910;28;20465;-81
2023/06/28 04:24:05;;;;;;;1.40;1.07;;;24.50;74.40;;;;;;5016285;28;20550;-81
2023/06/28 04:26:32;;;;;;;1.60;1.03;;;24.50;74.40;;;;;;5022882;28;20443;-80
2023/06/28 04:28:59;;;;;;;1.30;1.03;;;24.50;74.40;;;;;;5021181;28;20466;-81
2023/06/28 04:31:26;;;;;;;1.30;1.00;;;24.50;74.40;;;;;;5020991;28;20459;-79
2023/06/28 04:33:55;;;;;;;1.40;1.27;;;24.50;74.50;;;;;;5015129;28;22176;-79
2023/06/28 04:36:22;;;;;;;1.20;1.00;;;24.50;74.40;;;;;;5015256;28;20518;-79
2023/06/28 04:38:52;;;;;;;1.57;1.20;;;24.50;74.40;;;;;;5017745;28;20458;-80
2023/06/28 04:41:19;;;;;;;1.93;1.10;;;24.50;74.50;;;;;;5017240;28;20504;-79
2023/06/28 04:43:46;;;;;;;1.20;1.10;;;24.50;74.50;;;;;;5019077;28;20461;-79
2023/06/28 04:46:12;;;;;;;1.30;1.10;;;24.50;74.50;;;;;;5015736;28;20465;-79
2023/06/28 04:48:40;;;;;;;1.30;1.10;;;24.50;74.50;;;;;;5021037;28;20961;-80
2023/06/28 04:51:08;;;;;;;1.13;1.00;;;24.50;74.50;;;;;;5021541;28;20450;-79
2023/06/28 04:53:35;;;;;;;1.23;1.00;;;24.40;74.50;;;;;;5019474;28;20450;-79
2023/06/28 04:56:02;;;;;;;1.20;0.93;;;24.50;74.50;;;;;;5017829;28;20482;-79
2023/06/28 04:58:30;;;;;;;1.00;0.90;;;24.50;74.60;;;;;;5020815;28;21363;-79
2023/06/28 05:00:57;;;;;;;1.37;0.90;;;24.50;74.60;;;;;;5014184;28;20469;-80
2023/06/28 05:03:27;;;;;;;1.83;1.20;;;24.50;74.60;;;;;;5017857;28;20465;-80
2023/06/28 05:05:54;;;;;;;1.47;1.37;;;24.50;74.60;;;;;;5017458;28;20446;-79
2023/06/28 05:08:22;;;;;;;1.13;1.00;;;24.40;74.50;;;;;;5018022;28;22107;-80
2023/06/28 05:10:49;;;;;;;2.50;1.27;;;24.50;74.60;;;;;;5025461;28;20481;-80
2023/06/28 05:13:16;;;;;;;1.97;1.20;;;24.50;74.70;;;;;;5023468;28;20497;-79
2023/06/28 05:15:43;;;;;;;1.20;1.00;;;24.50;74.70;;;;;;5021939;28;20471;-79
2023/06/28 05:18:10;;;;;;;1.40;1.10;;;24.40;74.60;;;;;;5010546;28;20450;-80
2023/06/28 05:20:37;;;;;;;1.33;1.23;;;24.40;74.60;;;;;;5023566;28;20485;-79
2023/06/28 05:23:11;;;;;;;1.30;1.03;;;24.50;75.20;;;;;;5020892;28;20578;-79
2023/06/28 05:25:40;;;;;;;1.37;1.20;;;24.40;74.60;;;;;;5026148;28;20454;-79
2023/06/28 05:28:07;;;;;;;1.30;1.10;;;24.40;74.70;;;;;;5023845;28;20995;-79
2023/06/28 05:30:36;;;;;;;2.00;1.33;;;24.40;74.60;;;;;;5021653;28;20826;-80
2023/06/28 05:33:04;;;;;;;1.30;1.10;;;24.40;74.80;;;;;;5022470;28;20485;-80
2023/06/28 05:35:30;;;;;;;1.50;1.10;;;24.40;74.70;;;;;;5025700;28;20808;-79
2023/06/28 05:37:57;;;;;;;1.43;1.20;;;24.40;74.80;;;;;;5027733;28;20482;-80
2023/06/28 05:40:24;;;;;;;1.30;1.13;;;24.40;74.80;;;;;;5023775;28;20474;-80
2023/06/28 05:42:53;;;;;;;1.10;0.93;;;24.40;74.80;;;;;;5026415;28;20973;-79
2023/06/28 05:45:20;;;;;;;1.70;1.20;;;24.40;74.90;;;;;;5025310;28;20476;-80
2023/06/28 05:47:47;;;;;;;1.30;1.10;;;24.40;74.80;;;;;;5028732;28;20455;-79
2023/06/28 05:50:15;;;;;;;1.67;1.10;;;24.40;74.80;;;;;;5014819;28;20937;-79
2023/06/28 05:52:42;;;;;;;1.37;1.27;;;24.40;74.80;;;;;;5020624;28;20483;-80
2023/06/28 05:55:10;;;;;;;1.60;1.27;;;24.40;74.80;;;;;;5026238;28;20490;-81
2023/06/28 05:57:36;;;;;;;1.20;1.10;;;24.40;75.60;;;;;;5021637;28;20497;-79
2023/06/28 06:00:06;;;;;;;1.40;1.13;;;24.40;75.00;;;;;;5019660;28;20455;-79
2023/06/28 06:02:33;;;;;;;1.37;1.27;;;24.40;75.00;;;;;;5014239;28;20457;-79
2023/06/28 06:05:00;;;;;;;1.40;1.30;;;24.40;74.90;;;;;;5010868;28;20459;-79
2023/06/28 06:07:27;;;;;;;1.37;1.23;;;24.40;74.90;;;;;;5008260;28;20548;-80
2023/06/28 06:09:54;;;;;;;1.87;1.43;;;24.40;74.90;;;;;;5007838;28;20461;-79
2023/06/28 06:12:21;;;;;;;1.40;1.27;;;24.40;75.00;;;;;;5013181;28;22214;-80
2023/06/28 06:14:50;;;;;;;1.20;1.00;;;24.40;75.00;;;;;;5011909;28;20834;-79
2023/06/28 06:17:18;;;;;;;1.63;1.23;;;24.40;74.90;;;;;;5024844;28;20469;-80
2023/06/28 06:19:48;;;;;;;1.27;1.17;;;24.40;75.00;;;;;;5023457;28;20476;-80
2023/06/28 06:22:14;;;;;;;1.20;1.10;;;24.40;75.00;;;;;;5023670;28;20474;-80
2023/06/28 06:24:41;;;;;;;1.30;1.07;;;24.40;74.90;;;;;;5022970;28;20468;-80
2023/06/28 06:27:09;;;;;;;3.27;1.20;;;24.40;75.00;;;;;;5024666;28;20470;-80
2023/06/28 06:29:35;;;;;;;1.30;1.10;;;24.40;75.00;;;;;;5022133;28;20487;-79
2023/06/28 06:32:02;;;;;;;1.10;1.00;;;24.40;75.00;;;;;;5021559;28;22882;-80
2023/06/28 06:34:30;;;;;;;1.20;1.10;;;24.40;75.00;;;;;;5025405;28;20821;-80
2023/06/28 06:36:58;;;;;;;1.23;1.13;;;24.40;75.00;;;;;;5028342;28;20509;-80
2023/06/28 06:39:24;;;;;;;1.50;1.10;;;24.40;75.10;;;;;;5021077;28;20477;-80
2023/06/28 06:41:51;;;;;;;1.20;1.00;;;24.40;75.00;;;;;;5020902;28;20458;-79
2023/06/28 06:44:18;;;;;;;1.30;1.20;;;24.40;75.10;;;;;;5020527;28;20455;-80
2023/06/28 06:46:45;;;;;;;1.17;0.97;;;24.40;75.00;;;;;;5019380;28;20486;-80
2023/06/28 06:49:12;;;;;;;1.60;1.23;;;24.30;75.00;;;;;;5023926;28;20454;-78
2023/06/28 06:51:40;;;;;;;1.40;0.90;;;24.40;75.10;;;;;;5029924;28;20461;-79
2023/06/28 06:54:08;;;;;;;1.13;0.83;;;24.40;75.00;;;;;;5030297;28;20586;-79
2023/06/28 06:56:35;;;;;;;2.90;2.30;;;24.40;75.10;;;;;;5026514;28;20558;-79
2023/06/28 06:59:02;;;;;;;9.07;2.97;;;24.40;75.40;;;;;;5028468;28;20473;-79
2023/06/28 07:01:32;;;;;;;7.47;3.47;;;24.30;75.30;;;;;;5025338;28;21898;-79
2023/06/28 07:03:59;;;;;;;17.23;4.50;;;24.30;75.30;;;;;;5025485;28;21205;-79
2023/06/28 07:06:25;;;;;;;8.87;4.10;;;24.30;75.50;;;;;;5026130;28;20525;-79
2023/06/28 07:08:54;;;;;;;6.00;3.50;;;24.20;75.30;;;;;;5027162;28;20450;-79
2023/06/28 07:11:21;;;;;;;8.10;3.90;;;24.20;75.00;;;;;;5028203;28;20473;-79
2023/06/28 07:13:48;;;;;;;6.80;3.53;;;24.20;74.80;;;;;;5027041;28;21195;-79
2023/06/28 07:16:15;;;;;;;7.90;3.77;;;24.20;74.80;;;;;;5023795;28;20465;-79
2023/06/28 07:18:42;;;;;;;5.03;3.40;;;24.20;74.80;;;;;;5026319;28;20477;-78
2023/06/28 07:21:09;;;;;;;10.37;4.60;;;24.20;74.70;;;;;;5027820;28;20482;-79
2023/06/28 07:23:36;;;;;;;5.27;3.07;;;24.20;74.80;;;;;;5028689;28;20453;-78
2023/06/28 07:26:04;;;;;;;7.57;3.03;;;24.20;75.50;;;;;;5025549;28;20467;-78
2023/06/28 07:28:31;;;;;;;6.90;3.87;;;24.20;74.80;;;;;;5026541;28;20945;-79
2023/06/28 07:30:59;;;;;;;4.80;3.23;;;24.20;74.90;;;;;;5028286;28;21469;-78
2023/06/28 07:33:26;;;;;;;5.93;2.77;;;24.30;75.10;;;;;;5026370;28;20462;-78
2023/06/28 07:35:53;;;;;;;3.70;2.27;;;24.30;75.10;;;;;;5024264;28;20538;-78
2023/06/28 07:38:22;;;;;;;6.10;2.80;;;24.30;75.10;;;;;;5027979;28;20496;-78
2023/06/28 07:40:49;;;;;;;6.40;2.40;;;24.30;75.30;;;;;;5027509;28;20461;-78
2023/06/28 07:43:18;;;;;;;4.87;2.60;;;24.30;75.30;;;;;;5027862;28;20484;-79
2023/06/28 07:45:45;;;;;;;3.87;2.40;;;24.30;75.30;;;;;;5025375;28;20989;-80
2023/06/28 07:48:12;;;;;;;2.93;1.77;;;24.30;75.30;;;;;;5027178;28;20462;-80
2023/06/28 07:50:39;;;;;;;5.60;3.10;;;24.30;75.30;;;;;;5027712;28;20549;-79
2023/06/28 07:53:06;;;;;;;8.60;2.70;;;24.30;75.40;;;;;;5026742;28;20515;-78
2023/06/28 07:55:33;;;;;;;4.27;2.27;;;24.30;75.60;;;;;;5027529;28;20450;-79
2023/06/28 07:58:02;;;;;;;5.97;2.30;;;24.30;75.80;;;;;;5027158;28;21128;-79
2023/06/28 08:00:31;;;;;;;4.97;2.30;;;24.30;76.00;;;;;;5024058;28;21082;-79
2023/06/28 08:02:58;;;;;;;6.67;2.10;;;24.30;76.10;;;;;;5022351;28;20461;-79
2023/06/28 08:05:25;;;;;;;3.60;2.00;;;24.30;76.40;;;;;;5024680;28;20455;-78
2023/06/28 08:07:54;;;;;;;3.07;1.80;;;24.30;76.30;;;;;;5025956;28;20462;-81
2023/06/28 08:10:21;;;;;;;6.40;1.90;;;24.30;76.20;;;;;;5025258;28;21198;-79
2023/06/28 08:12:48;;;;;;;14.17;2.73;;;24.30;76.00;;;;;;5026769;28;20473;-79
2023/06/28 08:15:16;;;;;;;5.77;2.27;;;24.30;75.90;;;;;;5025008;28;20555;-78
2023/06/28 08:17:44;;;;;;;4.30;1.90;;;24.30;75.90;;;;;;5026049;28;20477;-79
2023/06/28 08:20:11;;;;;;;4.27;1.93;;;24.30;75.90;;;;;;5025119;28;20465;-77
2023/06/28 08:22:38;;;;;;;6.90;2.67;;;24.30;76.10;;;;;;5024491;28;21005;-78
2023/06/28 08:25:05;;;;;;;6.70;2.57;;;24.30;76.20;;;;;;5024930;28;20462;-77
2023/06/28 08:27:32;;;;;;;7.40;2.33;;;24.30;76.20;;;;;;5030709;28;20452;-78
2023/06/28 08:29:59;;;;;;;3.63;2.20;;;24.30;76.20;;;;;;5023901;28;20463;-78
2023/06/28 08:32:26;;;;;;;2.80;2.00;;;24.30;76.20;;;;;;5020512;28;20454;-78
2023/06/28 08:34:54;;;;;;;2.20;1.53;;;24.30;76.30;;;;;;5025658;28;20464;-78
2023/06/28 08:37:21;;;;;;;2.40;1.60;;;24.30;76.20;;;;;;5024428;28;20479;-78
2023/06/28 08:39:48;;;;;;;3.17;2.00;;;24.30;76.40;;;;;;5022874;28;20548;-78
2023/06/28 08:42:18;;;;;;;3.33;2.60;;;24.30;76.30;;;;;;5024773;28;20458;-79
2023/06/28 08:44:49;;;;;;;2.73;1.87;;;24.30;76.30;;;;;;5023975;28;20466;-80
2023/06/28 08:47:16;;;;;;;2.03;1.83;;;24.30;76.40;;;;;;5023815;28;20459;-79
2023/06/28 08:49:44;;;;;;;4.77;2.13;;;24.30;76.40;;;;;;5023412;28;20463;-79
2023/06/28 08:52:15;;;;;;;3.60;2.50;;;24.30;76.40;;;;;;5024397;28;20477;-79
2023/06/28 08:54:43;;;;;;;2.97;2.20;;;24.30;76.50;;;;;;5023246;28;20949;-79
2023/06/28 08:57:11;;;;;;;5.03;2.40;;;24.30;76.40;;;;;;5025137;28;21496;-79
2023/06/28 08:59:38;;;;;;;3.40;1.77;;;24.30;76.40;;;;;;5023495;28;20458;-77
2023/06/28 09:02:07;;;;;;;3.50;1.87;;;24.30;76.50;;;;;;5024242;28;20467;-77
2023/06/28 09:04:34;;;;;;;4.47;2.50;;;24.30;76.50;;;;;;5024336;28;20454;-79
2023/06/28 09:07:03;;;;;;;3.70;1.70;;;24.30;76.50;;;;;;5021284;28;20489;-79
2023/06/28 09:09:31;;;;;;;2.70;1.53;;;24.30;76.40;;;;;;5025974;28;20462;-79
2023/06/28 09:11:59;;;;;;;2.30;1.93;;;24.30;76.40;;;;;;5026594;28;20486;-79
2023/06/28 09:14:26;;;;;;;3.40;1.97;;;24.30;76.40;;;;;;5024506;28;20461;-76
2023/06/28 09:16:53;;;;;;;9.13;2.23;;;24.30;76.40;;;;;;5024128;28;20454;-79
2023/06/28 09:19:19;;;;;;;2.03;1.60;;;24.30;76.50;;;;;;5028402;28;20471;-79
2023/06/28 09:21:46;;;;;;;3.07;2.03;;;24.30;76.50;;;;;;5025188;28;20453;-79
2023/06/28 09:24:14;;;;;;;4.23;2.07;;;24.30;76.40;;;;;;5026718;28;20460;-78
2023/06/28 09:26:43;;;;;;;3.13;2.30;;;24.30;76.40;;;;;;5025539;28;20609;-77
2023/06/28 09:29:13;;;;;;;4.80;2.30;;;24.30;76.40;;;;;;5024265;28;20454;-75
2023/06/28 09:31:41;;;;;;;3.10;1.73;;;24.30;76.40;;;;;;5022907;28;20877;-78
2023/06/28 09:34:08;;;;;;;4.60;2.23;;;24.30;75.90;;;;;;5023963;28;20468;-78
2023/06/28 09:36:37;;;;;;;6.50;2.37;;;24.30;75.70;;;;;;5024910;28;20464;-78
2023/06/28 09:39:04;;;;;;;2.50;1.70;;;24.30;75.70;;;;;;5025378;28;20593;-78
2023/06/28 09:41:38;;;;;;;2.47;1.60;;;24.30;75.50;;;;;;5024654;28;20470;-78
2023/06/28 09:44:07;;;;;;;2.40;1.87;;;24.30;75.40;;;;;;5021046;28;20454;-79
2023/06/28 09:46:34;;;;;;;2.43;1.83;;;24.30;75.30;;;;;;5024739;28;20547;-78
2023/06/28 09:49:01;;;;;;;3.90;1.90;;;24.30;75.30;;;;;;5027547;28;20455;-78
2023/06/28 09:51:28;;;;;;;5.90;2.40;;;24.30;75.30;;;;;;5024935;28;21098;-78
2023/06/28 09:53:56;;;;;;;4.03;1.80;;;24.30;75.30;;;;;;5027926;28;20477;-78
2023/06/28 09:56:33;;;;;;;2.90;1.67;;;24.30;75.10;;;;;;5029853;28;20515;-78
2023/06/28 09:59:02;;;;;;;2.90;1.77;;;24.30;74.90;;;;;;5028892;28;20512;-77
2023/06/28 10:01:31;;;;;;;3.90;1.57;;;24.30;74.80;;;;;;5028814;28;20467;-78
2023/06/28 10:03:58;;;;;;;4.83;2.30;;;24.30;74.60;;;;;;5028807;28;20465;-78
2023/06/28 10:06:26;;;;;;;3.53;1.70;;;24.20;74.50;;;;;;5026525;28;20460;-77
2023/06/28 10:08:53;;;;;;;3.47;1.77;;;24.20;74.40;;;;;;5022194;28;20465;-77
2023/06/28 10:11:22;;;;;;;5.10;1.90;;;24.30;74.40;;;;;;5028309;28;20481;-77
2023/06/28 10:13:50;;;;;;;4.33;2.60;;;24.30;74.20;;;;;;5026959;28;20455;-77
2023/06/28 10:16:19;;;;;;;2.27;1.47;;;24.30;74.90;;;;;;5022637;28;20465;-77
2023/06/28 10:18:48;;;;;;;6.43;2.30;;;24.20;74.90;;;;;;5025040;28;20477;-79
2023/06/28 10:21:15;;;;;;;2.77;1.80;;;24.20;74.80;;;;;;5023771;28;20843;-75
2023/06/28 10:23:43;;;;;;;3.80;2.10;;;24.20;74.90;;;;;;5025547;28;20462;-77
2023/06/28 10:26:13;;;;;;;3.13;2.07;;;24.20;74.80;;;;;;5024483;28;20463;-78
2023/06/28 10:28:40;;;;;;;7.43;2.23;;;24.20;74.80;;;;;;5025916;28;20817;-78
2023/06/28 10:31:08;;;;;;;2.07;1.57;;;24.20;74.90;;;;;;5021136;28;20454;-77
2023/06/28 10:33:36;;;;;;;4.40;2.00;;;24.20;74.90;;;;;;5027611;28;20494;-77
2023/06/28 10:36:05;;;;;;;3.13;1.53;;;24.20;75.70;;;;;;5023876;28;20461;-78
2023/06/28 10:38:33;;;;;;;3.83;1.90;;;24.20;74.90;;;;;;5028480;28;20489;-78
2023/06/28 10:41:01;;;;;;;7.83;1.80;;;24.20;75.00;;;;;;5021218;28;20474;-78
2023/06/28 10:43:28;;;;;;;4.47;1.40;;;24.20;75.00;;;;;;5025194;28;20461;-78
2023/06/28 10:45:55;;;;;;;5.63;1.60;;;24.20;75.00;;;;;;5023966;28;21053;-78
2023/06/28 10:48:24;;;;;;;6.43;2.20;;;24.20;75.00;;;;;;5026621;28;20560;-78
2023/06/28 10:50:51;;;;;;;5.60;2.00;;;24.20;75.00;;;;;;5028180;28;21204;-78
2023/06/28 10:53:24;;;;;;;4.63;1.47;;;24.20;75.10;;;;;;5029217;28;20464;-77
2023/06/28 10:56:08;;;;;;;3.20;2.17;;;24.20;76.00;;;;;;5031209;28;20453;-78
2023/06/28 10:58:38;;;;;;;5.13;1.80;;;24.20;75.10;;;;;;5030534;28;21001;-79
2023/06/28 11:01:06;;;;;;;5.20;2.60;;;24.20;75.20;;;;;;5028548;28;20849;-78
2023/06/28 11:03:42;;;;;;;3.40;1.80;;;24.20;75.30;;;;;;5030540;28;20466;-80
2023/06/28 11:06:09;;;;;;;5.30;1.50;;;24.20;75.40;;;;;;5027823;28;20470;-85
2023/06/28 11:08:40;;;;;;;2.90;1.70;;;24.20;75.40;;;;;;5043741;28;20485;-82
2023/06/28 11:11:08;;;;;;;3.17;1.80;;;24.20;75.60;;;;;;5034847;28;20501;-83
2023/06/28 11:13:46;;;;;;;3.83;1.83;;;24.20;75.70;;;;;;5031665;28;20522;-82
2023/06/28 11:16:14;;;;;;;2.97;1.63;;;24.30;75.80;;;;;;5030002;28;20469;-82
2023/06/28 11:18:41;;;;;;;3.70;1.83;;;24.20;75.90;;;;;;5041055;28;21028;-82
2023/06/28 11:21:15;;;;;;;3.00;2.00;;;24.30;76.00;;;;;;5040953;28;20461;-84
2023/06/28 11:23:45;;;;;;;7.57;2.90;;;24.30;76.10;;;;;;5040518;28;20453;-82
2023/06/28 11:26:14;;;;;;;2.57;1.63;;;24.30;76.10;;;;;;5041464;28;20466;-84
2023/06/28 11:28:49;;;;;;;2.70;2.03;;;24.30;76.10;;;;;;5037461;28;20996;-83
2023/06/28 11:31:18;;;;;;;4.30;2.47;;;24.30;76.20;;;;;;5037883;28;20462;-83
2023/06/28 11:33:45;;;;;;;3.00;2.47;;;24.30;76.20;;;;;;5040900;28;20459;-85
2023/06/28 11:36:13;;;;;;;8.47;2.47;;;24.40;76.40;;;;;;5036478;28;20895;-81
2023/06/28 11:38:45;;;;;;;3.37;1.73;;;24.40;76.50;;;;;;5041093;28;20513;-82
2023/06/28 11:41:14;;;;;;;2.93;1.63;;;24.40;76.50;;;;;;5040720;28;20840;-82
2023/06/28 11:43:41;;;;;;;5.40;2.30;;;24.40;76.50;;;;;;5045800;28;20459;-85
2023/06/28 11:46:08;;;;;;;4.97;2.53;;;24.50;76.60;;;;;;5037103;28;20457;-83
2023/06/28 11:48:35;;;;;;;5.60;2.73;;;24.50;76.70;;;;;;5037450;28;20459;-83
2023/06/28 11:51:04;;;;;;;4.63;1.97;;;24.50;76.70;;;;;;5045773;28;20579;-82
2023/06/28 11:53:32;;;;;;;4.33;2.07;;;24.60;76.90;;;;;;5031570;28;20833;-80
2023/06/28 11:56:00;;;;;;;4.03;2.60;;;24.60;76.90;;;;;;5037927;28;20748;-82
2023/06/28 11:58:32;;;;;;;4.47;2.47;;;24.60;76.90;;;;;;5041781;28;20486;-83
2023/06/28 12:00:59;;;;;;;2.80;2.03;;;24.60;76.80;;;;;;5034261;28;20454;-82
2023/06/28 12:03:33;;;;;;;7.73;2.17;;;24.70;76.90;;;;;;5032207;28;20537;-83
2023/06/28 12:06:01;;;;;;;2.27;2.07;;;24.70;76.90;;;;;;5038856;28;20573;-84
2023/06/28 12:08:33;;;;;;;4.20;2.30;;;24.70;76.80;;;;;;5040321;28;20451;-84
2023/06/28 12:11:03;;;;;;;4.40;2.50;;;24.80;76.90;;;;;;5032252;28;20446;-84
2023/06/28 12:13:30;;;;;;;5.00;2.07;;;24.80;76.90;;;;;;5035012;28;20450;-84
2023/06/28 12:16:10;;;;;;;3.10;2.07;;;24.80;76.90;;;;;;5038133;28;20473;-84
2023/06/28 12:18:55;;;;;;;3.60;2.20;;;24.90;76.90;;;;;;5037092;28;20485;-82
2023/06/28 12:21:22;;;;;;;7.70;2.60;;;24.90;76.80;;;;;;5039223;28;20737;-84
2023/06/28 12:23:49;;;;;;;2.77;2.23;;;24.90;76.90;;;;;;5042640;28;20469;-83
2023/06/28 12:26:18;;;;;;;2.90;2.33;;;25.00;76.90;;;;;;5036125;28;20462;-80
2023/06/28 12:28:49;;;;;;;5.50;2.70;;;25.00;76.90;;;;;;5026223;28;20450;-77
2023/06/28 12:31:16;;;;;;;3.07;2.80;;;25.00;76.90;;;;;;5022916;28;20466;-77
2023/06/28 12:33:43;;;;;;;3.10;2.37;;;25.00;76.90;;;;;;5023287;28;20465;-77
2023/06/28 12:36:14;;;;;;;4.10;2.93;;;25.00;76.80;;;;;;5022877;28;20497;-77
2023/06/28 12:38:45;;;;;;;6.03;3.37;;;25.00;76.70;;;;;;5024463;28;21354;-77
2023/06/28 12:41:13;;;;;;;8.70;3.23;;;25.10;76.80;;;;;;5026469;28;20955;-77
2023/06/28 12:43:41;;;;;;;3.47;3.17;;;25.10;76.60;;;;;;5027016;28;20957;-77
2023/06/28 12:46:11;;;;;;;3.93;2.30;;;25.10;76.60;;;;;;5024889;28;20462;-77
2023/06/28 12:48:38;;;;;;;3.43;2.63;;;25.10;76.60;;;;;;5025591;28;20451;-78